Flight Track Log - Related Links

Times and Time Zones

All times are in EDT time to prevent confusion due to time zone crossing. See the WIG7306 flight status page for this flight to view local times or setup timezone preferences in your user account.

Time Position Orientation Groundspeed Altitude Reporting Facility
EDT Latitude Longitude Course Direction KTS MPH feet Rate Location/Type
Tue 10:21:53 PM 42.7614 -73.8067 358° North 107 123 1,000  Level Boston Center
Tue 10:22:17 PM 42.7719 -73.8072 358° North 104 120 1,400 1,352 Climbing Boston Center
Tue 10:23:04 PM 42.7736 -73.8311 275° West 90 104 2,600 1,477 Climbing Boston Center
Tue 10:23:22 PM 42.7700 -73.8414 244° Southwest 82 94 3,000 1,300 Climbing Boston Center
Tue 10:24:04 PM 42.7644 -73.8594 247° West 84 97 3,900 1,300 Climbing Boston Center
Tue 10:24:22 PM 42.7553 -73.8628 195° South 95 109 4,300 1,291 Climbing Boston Center
Tue 10:25:23 PM 42.7311 -73.8778 205° Southwest 101 116 5,600 1,189 Climbing Boston Center
Tue 10:26:08 PM 42.7117 -73.8892 203° Southwest 102 117 6,400 1,048 Climbing Boston Center
Tue 10:26:26 PM 42.7042 -73.8950 210° Southwest 107 123 6,700 1,180 Climbing Boston Center
Tue 10:27:09 PM 42.6850 -73.9064 204° Southwest 106 122 7,600 1,180 Climbing Boston Center
Tue 10:27:27 PM 42.6756 -73.9114 201° Southwest 104 120 7,900 400 Climbing Boston Center
Tue 10:28:09 PM 42.6569 -73.9231 205° Southwest 111 128 8,000 100 Climbing Boston Center
Tue 10:28:27 PM 42.6436 -73.9328 208° Southwest 142 163 8,000  Level Boston Center
Tue 10:29:10 PM 42.6178 -73.9478 203° Southwest 150 173 8,000  Level Boston Center
Tue 10:29:25 PM 42.6047 -73.9572 208° Southwest 159 183 8,000  Level Boston Center
Tue 10:30:10 PM 42.5792 -73.9725 204° Southwest 154 177 8,000  Level Boston Center
Tue 10:30:28 PM 42.5658 -73.9817 207° Southwest 155 178 8,000  Level Boston Center
Tue 10:31:11 PM 42.5414 -73.9953 202° Southwest 150 173 8,000  Level Boston Center
Tue 10:31:26 PM 42.5278 -74.0008 197° South 147 169 8,000  Level Boston Center
Tue 10:32:12 PM 42.5011 -74.0192 207° Southwest 147 169 8,000  Level Boston Center
Tue 10:33:10 PM 42.4644 -74.0422 205° Southwest 146 168 8,000  Level Boston Center
Tue 10:34:13 PM 42.4264 -74.0664 205° Southwest 151 174 8,000  Level Boston Center
Tue 10:35:14 PM 42.3889 -74.0878 203° Southwest 147 169 8,000  Level Boston Center
Tue 10:36:14 PM 42.3531 -74.1097 204° Southwest 144 166 8,000  Level Boston Center
Tue 10:37:15 PM 42.3131 -74.1344 205° Southwest 152 175 8,000  Level Boston Center
Tue 10:38:15 PM 42.2789 -74.1550 204° Southwest 137 158 8,000  Level Boston Center
Tue 10:39:16 PM 42.2444 -74.1756 204° Southwest 136 157 8,000  Level Boston Center
Tue 10:40:17 PM 42.2100 -74.1969 205° Southwest 136 157 8,000  Level Boston Center
Tue 10:41:15 PM 42.1772 -74.2219 209° Southwest 135 155 8,000  Level Boston Center
Tue 10:42:18 PM 42.1417 -74.2497 210° Southwest 139 160 8,000  Level Boston Center
Tue 10:43:19 PM 42.1086 -74.2758 210° Southwest 139 160 8,000  Level Boston Center
Tue 10:44:20 PM 42.0753 -74.2969 205° Southwest 135 155 8,000  Level Boston Center
Tue 10:45:20 PM 42.0431 -74.3211 209° Southwest 134 154 8,000  Level Boston Center
Tue 10:46:19 PM 42.0114 -74.3447 209° Southwest 132 152 8,000  Level Boston Center
Tue 10:47:19 PM 41.9772 -74.3703 209° Southwest 138 159 8,000  Level Boston Center
Tue 10:48:20 PM 41.9422 -74.3942 207° Southwest 140 161 8,000  Level Boston Center
Tue 10:49:22 PM 41.9083 -74.4181 208° Southwest 138 159 8,000  Level Boston Center
Tue 10:50:20 PM 41.8711 -74.4436 207° Southwest 139 160 8,000  Level Boston Center
Tue 10:51:23 PM 41.8361 -74.4686 208° Southwest 142 163 8,000  Level Boston Center
Tue 10:52:23 PM 41.8022 -74.4944 210° Southwest 142 163 8,000  Level Boston Center
Tue 10:53:24 PM 41.7683 -74.5194 209° Southwest 140 161 8,000  Level Boston Center
Tue 10:54:24 PM 41.7289 -74.5314 193° South 146 168 8,000  Level Boston Center
Tue 10:55:25 PM 41.6867 -74.5386 187° South 152 175 8,000 -197 Level Boston Center
Tue 10:56:26 PM 41.6433 -74.5469 188° South 156 180 7,600 -550 Descending Boston Center
Tue 10:57:25 PM 41.5936 -74.5569 189° South 167 192 6,900 -694 Descending Boston Center
Tue 10:58:27 PM 41.5475 -74.5650 187° South 168 193 6,200 -443 Descending Boston Center
Tue 10:59:27 PM 41.5039 -74.5717 187° South 160 184 6,000 -101 Descending Boston Center
Tue 11:00:26 PM 41.4639 -74.5806 189° South 148 170 6,000  Level Boston Center
Tue 11:01:26 PM 41.4233 -74.5886 188° South 148 170 6,000  Level Boston Center
Tue 11:02:27 PM 41.3839 -74.6000 192° South 146 168 6,000  Level Boston Center
Tue 11:03:37 PM 41.3333 -74.6167 194° South 142 163 6,000 -369 Level New York TRACON
Tue 11:04:37 PM 41.3000 -74.6167 180° South 165 190 5,200 -500 Descending New York TRACON
Tue 11:05:37 PM 41.2500 -74.5667 143° Southeast 176 203 5,000 -550 Descending New York TRACON
Tue 11:06:37 PM 41.2167 -74.5333 143° Southeast 187 215 4,100 -950 Descending New York TRACON
Tue 11:07:37 PM 41.1833 -74.4833 132° Southeast 196 226 3,100 -550 Descending New York TRACON
Tue 11:08:37 PM 41.1500 -74.4333 132° Southeast 175 201 3,000 -50 Descending New York TRACON
Tue 11:09:37 PM 41.1167 -74.3833 131° Southeast 170 196 3,000  Level New York TRACON
Tue 11:10:37 PM 41.0833 -74.3500 143° Southeast 175 201 3,000  Level New York TRACON
Tue 11:11:37 PM 41.0333 -74.3000 143° Southeast 173 199 3,000  Level New York TRACON
Tue 11:12:37 PM 41.0000 -74.2500 131° Southeast 176 203 3,000  Level New York TRACON
Tue 11:13:37 PM 40.9833 -74.2000 114° Southeast 169 194 3,000  Level New York TRACON
Tue 11:14:37 PM 40.9667 -74.1500 114° Southeast 168 193 3,000  Level New York TRACON
Tue 11:15:37 PM 40.9333 -74.1000 131° Southeast 169 194 3,000  Level New York TRACON
Tue 11:16:37 PM 40.9000 -74.0667 143° Southeast 170 196 3,000  Level New York TRACON
Tue 11:17:37 PM 40.8500 -74.0667 180° South 169 194 3,000 -200 Level New York TRACON
Tue 11:18:37 PM 40.8167 -74.0833 201° Southwest 178 205 2,600 -700 Descending New York TRACON
Tue 11:19:37 PM 40.7667 -74.1167 207° Southwest 189 217 1,600 -1,050 Descending New York TRACON
Tue 11:20:37 PM 40.7167 -74.1500 207° Southwest 184 212 500 -1,100 Descending New York TRACON
Tue 11:22:00 PM 40.6925 -74.1687 208° Southwest  Level Estimated
Tue 11:29:00 PM 40.6925 -74.1687 208° Southwest  Level Estimated
Tue 11:30:00 PM 40.6925 -74.1687 208° Southwest  Level Estimated

Login

Don't have an account? Register now (free) for customized features, flight alerts, and more!